Time;durP1;ratioP1;P1;durP2;ratioP2;P2;SDS_P1;SDS_P2;PMS_P1;PMS_P2;Temp;Humidity;BMP_temperature;BMP_pressure;BME280_temperature;BME280_humidity;BME280_pressure;Samples;Min_cycle;Max_cycle;Signal;HPM_P1;HPM_P2
2022/08/18 06:34:11;;;;;;;5.57;2.60;;;;;;;;;;5549037;23;20428;-73
2022/08/18 06:36:37;;;;;;;4.40;2.50;;;;;;;;;;4927350;28;20379;-73
2022/08/18 06:39:33;;;;;;;3.17;2.47;;;;;;;;;;4928247;29;20039;-73
2022/08/18 06:42:00;;;;;;;3.75;1.90;;;;;;;;;;4905834;29;20036;-73
2022/08/18 06:44:35;;;;;;;15.60;3.03;;;;;;;;;;4926120;29;20523;-73
2022/08/18 06:47:14;;;;;;;28.90;3.83;;;;;;;;;;4934414;29;20039;-74
2022/08/18 06:49:45;;;;;;;11.93;4.05;;;;;;;;;;4934426;29;20046;-72
2022/08/18 06:52:21;;;;;;;14.80;2.78;;;;;;;;;;4933802;29;20023;-73
2022/08/18 06:54:47;;;;;;;5.65;2.70;;;;;;;;;;4915382;29;20074;-73
2022/08/18 06:57:22;;;;;;;10.07;2.35;;;;;;;;;;4915484;29;20025;-73
2022/08/18 06:59:59;;;;;;;7.38;2.67;;;;;;;;;;4915140;29;20032;-73
2022/08/18 07:02:31;;;;;;;5.82;2.75;;;;;;;;;;4915592;29;20034;-73
2022/08/18 07:04:59;;;;;;;8.85;2.80;;;;;;;;;;4914824;29;20024;-73
2022/08/18 07:07:30;;;;;;;12.95;2.75;;;;;;;;;;4918391;29;20515;-73
2022/08/18 07:09:57;;;;;;;4.80;2.50;;;;;;;;;;4931976;29;20030;-73
2022/08/18 07:12:25;;;;;;;3.15;1.92;;;;;;;;;;4932989;29;20494;-74
2022/08/18 07:14:54;;;;;;;6.38;2.20;;;;;;;;;;4947887;29;20090;-74
2022/08/18 07:17:25;;;;;;;5.75;2.33;;;;;;;;;;4933631;29;20027;-73
2022/08/18 07:19:59;;;;;;;4.75;1.92;;;;;;;;;;4933266;29;20413;-73
2022/08/18 07:22:25;;;;;;;3.60;2.10;;;;;;;;;;4932931;29;20054;-73
2022/08/18 07:24:53;;;;;;;2.67;1.88;;;;;;;;;;4933377;29;20036;-72
2022/08/18 07:27:21;;;;;;;2.00;1.80;;;;;;;;;;4932582;29;20048;-73
2022/08/18 07:30:04;;;;;;;5.22;2.28;;;;;;;;;;4932558;29;20027;-73
2022/08/18 07:32:54;;;;;;;5.38;2.22;;;;;;;;;;4933434;29;20385;-73
2022/08/18 07:35:27;;;;;;;6.35;2.40;;;;;;;;;;4929663;29;20054;-73
2022/08/18 07:37:53;;;;;;;4.00;2.10;;;;;;;;;;4933379;29;20044;-73
2022/08/18 07:40:29;;;;;;;3.80;1.70;;;;;;;;;;4932144;29;20108;-74
2022/08/18 07:42:55;;;;;;;4.55;2.47;;;;;;;;;;4933134;29;20521;-74
2022/08/18 07:45:24;;;;;;;3.42;2.08;;;;;;;;;;4933124;29;20039;-73
2022/08/18 07:47:58;;;;;;;3.50;1.90;;;;;;;;;;4933292;29;20038;-73
2022/08/18 07:50:26;;;;;;;6.55;1.60;;;;;;;;;;4933016;29;20024;-73
2022/08/18 07:53:03;;;;;;;3.78;1.40;;;;;;;;;;4934318;29;20028;-73
2022/08/18 07:55:31;;;;;;;2.30;1.10;;;;;;;;;;4936584;29;20502;-73
2022/08/18 07:58:00;;;;;;;1.88;1.08;;;;;;;;;;4936739;29;20020;-73
2022/08/18 08:00:27;;;;;;;3.88;1.20;;;;;;;;;;4936232;29;20043;-73
2022/08/18 08:03:06;;;;;;;4.53;1.40;;;;;;;;;;4935956;29;20030;-71
2022/08/18 08:05:45;;;;;;;2.67;1.20;;;;;;;;;;4936129;29;20030;-71
2022/08/18 08:08:17;;;;;;;2.72;1.10;;;;;;;;;;4936365;29;20494;-71
2022/08/18 08:10:58;;;;;;;2.80;1.20;;;;;;;;;;4945771;29;20036;-71
2022/08/18 08:13:38;;;;;;;2.92;1.10;;;;;;;;;;4934105;29;20028;-71
2022/08/18 08:16:13;;;;;;;2.67;1.10;;;;;;;;;;4937018;29;20054;-70
2022/08/18 08:18:43;;;;;;;1.38;0.85;;;;;;;;;;4936681;29;20031;-71
2022/08/18 08:21:17;;;;;;;3.80;1.15;;;;;;;;;;4935693;29;20036;-71
2022/08/18 08:24:10;;;;;;;1.52;0.80;;;;;;;;;;4936875;29;20038;-71
2022/08/18 08:26:37;;;;;;;4.75;1.00;;;;;;;;;;4936016;29;20035;-71
2022/08/18 08:29:06;;;;;;;2.45;1.10;;;;;;;;;;4934798;29;20031;-71
2022/08/18 08:31:36;;;;;;;3.38;0.93;;;;;;;;;;4935342;29;20028;-70
2022/08/18 08:34:07;;;;;;;3.15;0.98;;;;;;;;;;4935766;29;20094;-71
2022/08/18 08:36:33;;;;;;;;;;;;;;;;;;4936466;29;20039;-70
2022/08/18 08:39:18;;;;;;;4.40;1.00;;;;;;;;;;4935510;29;19907;-71
2022/08/18 08:41:51;;;;;;;3.00;1.00;;;;;;;;;;4936077;29;20029;-71
2022/08/18 08:44:21;;;;;;;4.28;1.10;;;;;;;;;;4935399;29;20495;-71
2022/08/18 08:46:51;;;;;;;4.75;1.10;;;;;;;;;;4935179;29;20501;-71
2022/08/18 08:49:30;;;;;;;3.40;0.80;;;;;;;;;;4935638;29;20028;-71
2022/08/18 08:52:00;;;;;;;2.53;0.85;;;;;;;;;;4935509;29;20046;-71
2022/08/18 08:54:29;;;;;;;1.63;1.00;;;;;;;;;;4936234;29;20016;-71
2022/08/18 08:56:58;;;;;;;2.22;0.85;;;;;;;;;;4936350;29;20496;-71
2022/08/18 08:59:26;;;;;;;2.88;0.88;;;;;;;;;;4936451;29;20059;-71
2022/08/18 09:02:06;;;;;;;2.13;0.98;;;;;;;;;;4933492;29;20027;-71
2022/08/18 09:04:51;;;;;;;1.48;0.63;;;;;;;;;;4933907;29;20036;-71
2022/08/18 09:07:20;;;;;;;1.85;0.90;;;;;;;;;;4935053;29;20510;-71
2022/08/18 09:09:47;;;;;;;2.85;0.80;;;;;;;;;;4936416;29;20023;-71
2022/08/18 09:12:29;;;;;;;5.65;1.10;;;;;;;;;;4934915;29;20036;-71
2022/08/18 09:15:03;;;;;;;1.23;0.70;;;;;;;;;;4935600;29;20028;-71
2022/08/18 09:17:49;;;;;;;0.98;0.80;;;;;;;;;;4936176;29;20031;-71
2022/08/18 09:20:15;;;;;;;3.97;0.70;;;;;;;;;;4935903;29;20024;-71
2022/08/18 09:22:44;;;;;;;6.35;0.90;;;;;;;;;;4935802;29;20035;-71
2022/08/18 09:25:29;;;;;;;3.05;0.80;;;;;;;;;;4935874;29;20031;-71
2022/08/18 09:28:12;;;;;;;4.55;0.70;;;;;;;;;;4935786;29;20039;-71
2022/08/18 09:30:41;;;;;;;3.38;0.88;;;;;;;;;;4935283;29;20457;-71
2022/08/18 09:33:10;;;;;;;2.92;0.80;;;;;;;;;;4933391;29;20490;-71
2022/08/18 09:35:44;;;;;;;1.25;0.68;;;;;;;;;;4935100;29;20104;-71
2022/08/18 09:43:54;;;;;;;5.30;1.00;;;;;;;;;;4934507;29;20089;-71
2022/08/18 09:46:39;;;;;;;3.05;0.80;;;;;;;;;;4935371;29;20051;-71
2022/08/18 09:49:23;;;;;;;2.80;0.82;;;;;;;;;;4934825;29;20020;-71
2022/08/18 09:51:58;;;;;;;2.58;0.90;;;;;;;;;;4934455;29;20039;-71
2022/08/18 09:54:29;;;;;;;3.60;0.77;;;;;;;;;;4934566;29;20039;-71
2022/08/18 09:56:56;;;;;;;1.55;0.88;;;;;;;;;;4935117;29;20015;-71
2022/08/18 09:59:35;;;;;;;2.47;0.80;;;;;;;;;;4934989;29;20493;-71
2022/08/18 10:02:06;;;;;;;2.75;0.68;;;;;;;;;;4935215;29;20528;-71
2022/08/18 10:04:34;;;;;;;2.22;1.60;;;;;;;;;;4935072;29;20494;-71
2022/08/18 10:07:14;;;;;;;2.75;0.70;;;;;;;;;;4935034;29;20036;-71
2022/08/18 10:09:47;;;;;;;2.30;0.90;;;;;;;;;;4935081;29;20521;-71
2022/08/18 10:12:20;;;;;;;1.58;0.80;;;;;;;;;;4935099;29;20038;-71
2022/08/18 10:14:52;;;;;;;2.33;0.80;;;;;;;;;;4932499;29;20383;-71
2022/08/18 10:17:34;;;;;;;3.70;1.10;;;;;;;;;;4932489;29;20039;-71
2022/08/18 10:20:19;;;;;;;1.52;1.00;;;;;;;;;;4934886;29;20389;-71
2022/08/18 10:22:47;;;;;;;2.38;1.10;;;;;;;;;;4934789;29;20054;-71
2022/08/18 10:25:29;;;;;;;2.67;1.00;;;;;;;;;;4935265;29;20027;-71
2022/08/18 10:27:56;;;;;;;4.00;1.08;;;;;;;;;;4934606;29;20040;-71
2022/08/18 10:30:29;;;;;;;3.78;1.20;;;;;;;;;;4934642;29;20035;-71
2022/08/18 10:32:56;;;;;;;1.95;0.85;;;;;;;;;;4934398;29;20027;-71
2022/08/18 10:35:35;;;;;;;2.55;0.80;;;;;;;;;;4933582;29;20035;-71
2022/08/18 10:38:35;;;;;;;6.10;1.80;;;;;;;;;;4934272;29;20042;-71
2022/08/18 10:41:07;;;;;;;7.85;2.50;;;;;;;;;;4932668;29;20032;-71
2022/08/18 10:43:34;;;;;;;7.32;2.42;;;;;;;;;;4932013;29;20634;-71
2022/08/18 10:46:00;;;;;;;5.20;3.28;;;;;;;;;;4932184;29;20028;-71
2022/08/18 10:48:29;;;;;;;4.70;2.63;;;;;;;;;;4931588;29;20040;-71
2022/08/18 10:51:10;;;;;;;3.33;2.25;;;;;;;;;;4915824;29;20054;-71
2022/08/18 10:53:40;;;;;;;3.05;2.25;;;;;;;;;;4931770;29;20451;-71
2022/08/18 10:56:16;;;;;;;4.32;2.47;;;;;;;;;;4916152;29;20043;-71
2022/08/18 10:58:57;;;;;;;3.42;1.83;;;;;;;;;;4931641;29;20036;-71
2022/08/18 11:01:23;;;;;;;;;;;;;;;;;;4932665;29;20520;-71
2022/08/18 11:03:52;;;;;;;2.97;1.60;;;;;;;;;;4931836;29;20306;-71
2022/08/18 11:06:24;;;;;;;2.40;1.67;;;;;;;;;;4931068;29;20388;-71
2022/08/18 11:08:52;;;;;;;2.83;1.48;;;;;;;;;;4931882;29;20036;-71
2022/08/18 11:11:30;;;;;;;2.88;1.40;;;;;;;;;;4916503;29;20170;-70
2022/08/18 11:14:20;;;;;;;4.60;1.30;;;;;;;;;;4932399;29;20031;-71
2022/08/18 11:16:51;;;;;;;10.00;6.45;;;;;;;;;;4932976;29;20031;-71
2022/08/18 11:19:19;;;;;;;3.95;2.95;;;;;;;;;;4934533;29;20086;-71
2022/08/18 11:21:46;;;;;;;7.15;5.05;;;;;;;;;;4934303;29;20024;-70
2022/08/18 11:24:13;;;;;;;6.65;5.22;;;;;;;;;;4934225;29;20032;-71
2022/08/18 11:26:47;;;;;;;8.65;4.47;;;;;;;;;;4934456;29;20038;-71
2022/08/18 11:29:17;;;;;;;5.47;4.32;;;;;;;;;;4953230;29;20032;-71
2022/08/18 11:31:45;;;;;;;6.60;4.45;;;;;;;;;;4938108;29;20036;-70
2022/08/18 11:34:14;;;;;;;6.95;4.07;;;;;;;;;;4937420;29;20395;-69
2022/08/18 11:36:40;;;;;;;6.57;3.67;;;;;;;;;;4937951;29;20038;-71
2022/08/18 11:39:10;;;;;;;4.78;3.95;;;;;;;;;;4937809;29;20034;-71
2022/08/18 11:41:39;;;;;;;8.30;4.00;;;;;;;;;;4937299;29;20095;-71
2022/08/18 11:44:11;;;;;;;8.05;5.60;;;;;;;;;;4937932;29;20034;-70
2022/08/18 11:46:39;;;;;;;2.83;2.20;;;;;;;;;;4937774;29;20046;-70
2022/08/18 11:49:14;;;;;;;6.25;4.43;;;;;;;;;;4937163;29;20030;-70
2022/08/18 11:51:53;;;;;;;10.00;4.20;;;;;;;;;;4937587;29;20047;-70
2022/08/18 11:54:20;;;;;;;4.72;3.75;;;;;;;;;;4937006;29;20086;-71
2022/08/18 11:56:47;;;;;;;3.17;2.15;;;;;;;;;;4936973;29;20028;-71
2022/08/18 11:59:25;;;;;;;4.03;2.67;;;;;;;;;;4937280;29;20493;-71
2022/08/18 12:01:55;;;;;;;6.72;3.90;;;;;;;;;;4937472;29;20030;-71
2022/08/18 12:04:27;;;;;;;2.58;1.73;;;;;;;;;;4936658;29;20034;-70
2022/08/18 12:07:07;;;;;;;2.45;2.25;;;;;;;;;;4933595;29;20378;-71
2022/08/18 12:10:10;;;;;;;3.95;2.60;;;;;;;;;;4936147;29;20057;-71
2022/08/18 12:12:44;;;;;;;3.38;2.30;;;;;;;;;;4923484;29;20032;-71
2022/08/18 12:15:13;;;;;;;2.65;1.52;;;;;;;;;;4937319;29;20024;-71
2022/08/18 12:17:40;;;;;;;2.85;1.50;;;;;;;;;;4937066;29;20049;-71
2022/08/18 12:20:07;;;;;;;3.95;1.70;;;;;;;;;;4937143;29;20022;-71
2022/08/18 12:22:35;;;;;;;2.58;1.58;;;;;;;;;;4936980;29;20383;-71
2022/08/18 12:25:02;;;;;;;2.72;1.75;;;;;;;;;;4936994;29;20031;-70
2022/08/18 12:27:32;;;;;;;2.85;1.30;;;;;;;;;;4936877;29;20402;-71
2022/08/18 12:30:00;;;;;;;1.90;1.70;;;;;;;;;;4936987;29;20035;-71
2022/08/18 12:32:29;;;;;;;2.80;1.33;;;;;;;;;;4936024;29;20024;-70
2022/08/18 12:34:55;;;;;;;1.63;1.23;;;;;;;;;;4936642;29;20050;-71
2022/08/18 12:37:23;;;;;;;5.05;1.45;;;;;;;;;;4934689;29;20031;-70
2022/08/18 12:39:50;;;;;;;2.80;1.20;;;;;;;;;;4935890;29;20019;-71
2022/08/18 12:42:16;;;;;;;4.30;1.55;;;;;;;;;;4936732;29;20031;-70
2022/08/18 12:44:43;;;;;;;1.48;0.95;;;;;;;;;;4936858;29;20079;-70
2022/08/18 12:47:13;;;;;;;4.80;1.35;;;;;;;;;;4936591;29;20036;-71
2022/08/18 12:49:40;;;;;;;3.08;1.00;;;;;;;;;;4935907;29;20494;-71
2022/08/18 12:52:06;;;;;;;2.20;1.25;;;;;;;;;;4936764;29;20038;-71
2022/08/18 12:54:34;;;;;;;1.98;1.08;;;;;;;;;;4936254;29;20024;-71
2022/08/18 12:57:01;;;;;;;2.63;1.00;;;;;;;;;;4936593;29;20042;-71
2022/08/18 12:59:27;;;;;;;2.45;1.10;;;;;;;;;;4936461;29;20027;-71
2022/08/18 13:01:54;;;;;;;3.47;1.20;;;;;;;;;;4936859;29;20078;-71
2022/08/18 13:04:20;;;;;;;2.13;1.13;;;;;;;;;;4936228;29;20391;-70
2022/08/18 13:06:48;;;;;;;3.95;1.13;;;;;;;;;;4935326;29;20402;-71
2022/08/18 13:09:15;;;;;;;2.10;1.13;;;;;;;;;;4936111;29;20034;-70
2022/08/18 13:11:41;;;;;;;2.67;1.13;;;;;;;;;;4935466;29;20027;-70
2022/08/18 13:14:08;;;;;;;3.28;1.15;;;;;;;;;;4935689;29;20020;-70
2022/08/18 13:16:35;;;;;;;3.25;1.20;;;;;;;;;;4936224;29;20015;-70
2022/08/18 13:19:03;;;;;;;1.85;0.90;;;;;;;;;;4935593;29;20102;-70
2022/08/18 13:21:29;;;;;;;1.80;1.15;;;;;;;;;;4935438;29;20024;-70
2022/08/18 13:23:56;;;;;;;5.05;1.02;;;;;;;;;;4936039;29;20030;-70
2022/08/18 13:26:29;;;;;;;1.55;0.90;;;;;;;;;;4935960;29;20031;-73
2022/08/18 13:28:58;;;;;;;3.05;1.00;;;;;;;;;;4935890;29;20034;-73
2022/08/18 13:31:24;;;;;;;2.78;1.27;;;;;;;;;;4935672;29;20034;-71
2022/08/18 13:33:51;;;;;;;3.03;1.00;;;;;;;;;;4934420;29;20102;-71
2022/08/18 13:36:17;;;;;;;3.97;1.10;;;;;;;;;;4934759;29;20031;-70
2022/08/18 13:38:43;;;;;;;1.73;1.00;;;;;;;;;;4935728;29;20023;-71
2022/08/18 13:41:11;;;;;;;2.17;1.27;;;;;;;;;;4935725;29;20027;-71
2022/08/18 13:43:40;;;;;;;3.80;1.23;;;;;;;;;;4950719;29;20557;-70
2022/08/18 13:46:08;;;;;;;1.65;0.80;;;;;;;;;;4935686;29;20016;-72
2022/08/18 13:48:34;;;;;;;3.05;0.80;;;;;;;;;;4935667;29;20031;-73
2022/08/18 13:51:01;;;;;;;3.40;0.88;;;;;;;;;;4934568;29;20035;-73
2022/08/18 13:53:29;;;;;;;1.88;1.00;;;;;;;;;;4932630;29;20038;-73
2022/08/18 13:55:56;;;;;;;3.10;0.80;;;;;;;;;;4935346;29;20028;-73
2022/08/18 13:58:23;;;;;;;3.22;1.17;;;;;;;;;;4935112;29;20024;-73
2022/08/18 14:00:53;;;;;;;3.90;0.95;;;;;;;;;;4935502;29;20027;-70
2022/08/18 14:03:22;;;;;;;1.63;0.90;;;;;;;;;;4935419;29;20393;-71
2022/08/18 14:05:53;;;;;;;2.85;0.93;;;;;;;;;;4934912;29;20034;-70
2022/08/18 14:08:20;;;;;;;2.03;0.85;;;;;;;;;;4935486;29;20036;-70
2022/08/18 14:10:48;;;;;;;2.30;0.77;;;;;;;;;;4934515;29;20023;-71
2022/08/18 14:13:15;;;;;;;2.85;0.80;;;;;;;;;;4935049;29;20379;-71
2022/08/18 14:15:44;;;;;;;1.98;0.80;;;;;;;;;;4935158;29;20026;-71
2022/08/18 14:18:10;;;;;;;1.38;0.75;;;;;;;;;;4933937;29;20026;-71
2022/08/18 14:28:52;;;;;;;1.73;0.70;;;;;;;;;;4932458;29;20036;-71
2022/08/18 14:31:19;;;;;;;3.85;0.75;;;;;;;;;;4933820;29;20036;-70
2022/08/18 14:33:45;;;;;;;4.28;0.98;;;;;;;;;;4933284;29;20036;-71
2022/08/18 14:36:15;;;;;;;1.83;0.80;;;;;;;;;;4933675;29;20050;-71
2022/08/18 14:38:42;;;;;;;1.42;0.80;;;;;;;;;;4928237;29;20034;-72
2022/08/18 14:41:10;;;;;;;1.73;0.63;;;;;;;;;;4933825;29;20036;-72
2022/08/18 14:43:37;;;;;;;4.05;1.05;;;;;;;;;;4934130;29;20036;-72
2022/08/18 14:46:04;;;;;;;6.18;0.90;;;;;;;;;;4916113;29;20034;-72
2022/08/18 14:48:30;;;;;;;3.35;0.90;;;;;;;;;;4914497;29;20050;-71
2022/08/18 14:50:58;;;;;;;2.67;0.80;;;;;;;;;;4914594;29;20035;-72
2022/08/18 14:53:26;;;;;;;4.47;0.70;;;;;;;;;;4914549;29;20028;-72
2022/08/18 14:55:53;;;;;;;3.28;0.77;;;;;;;;;;4914700;29;20020;-72
2022/08/18 14:58:21;;;;;;;2.58;0.90;;;;;;;;;;4914655;29;20020;-72
2022/08/18 15:00:47;;;;;;;6.95;0.90;;;;;;;;;;4914946;29;20029;-72
2022/08/18 15:03:13;;;;;;;2.00;0.80;;;;;;;;;;4917497;29;20032;-72
2022/08/18 15:05:40;;;;;;;4.50;0.73;;;;;;;;;;4918665;29;20028;-73
2022/08/18 15:08:07;;;;;;;1.80;0.68;;;;;;;;;;4918450;29;20399;-72
2022/08/18 15:10:34;;;;;;;1.30;0.68;;;;;;;;;;4918850;29;20474;-72
2022/08/18 15:13:00;;;;;;;2.22;0.90;;;;;;;;;;4919069;29;20034;-72
2022/08/18 15:15:28;;;;;;;3.38;0.90;;;;;;;;;;4918827;29;20025;-72
2022/08/18 15:17:55;;;;;;;1.25;0.77;;;;;;;;;;4918412;29;20032;-72
2022/08/18 15:20:23;;;;;;;3.95;1.20;;;;;;;;;;4918763;29;20035;-72
2022/08/18 15:25:40;;;;;;;4.00;0.80;;;;;;;;;;4937467;29;20417;-72
2022/08/18 15:28:18;;;;;;;2.47;0.80;;;;;;;;;;4937986;29;20048;-72
2022/08/18 15:30:45;;;;;;;0.73;0.52;;;;;;;;;;4937691;29;20035;-72
2022/08/18 15:33:14;;;;;;;3.45;0.95;;;;;;;;;;4937118;29;20031;-72
2022/08/18 15:35:41;;;;;;;2.25;0.70;;;;;;;;;;4937212;29;20514;-72
2022/08/18 15:38:08;;;;;;;1.27;0.60;;;;;;;;;;4937103;29;20482;-72
2022/08/18 15:40:34;;;;;;;1.02;0.80;;;;;;;;;;4937436;29;20042;-71
2022/08/18 15:43:01;;;;;;;3.08;0.80;;;;;;;;;;4936666;29;20513;-72
2022/08/18 15:45:34;;;;;;;1.88;0.65;;;;;;;;;;4937282;29;20038;-72
2022/08/18 15:48:02;;;;;;;1.65;0.73;;;;;;;;;;4936386;29;20535;-72
2022/08/18 15:50:28;;;;;;;4.15;0.70;;;;;;;;;;4936877;29;20028;-71
2022/08/18 15:52:56;;;;;;;2.55;0.82;;;;;;;;;;4936791;29;20508;-71
2022/08/18 15:55:24;;;;;;;1.38;0.70;;;;;;;;;;4937169;29;20038;-72
2022/08/18 15:57:50;;;;;;;3.00;0.80;;;;;;;;;;4937249;29;20027;-71
2022/08/18 16:00:19;;;;;;;1.77;0.80;;;;;;;;;;4936892;29;20394;-72
2022/08/18 16:02:55;;;;;;;1.85;0.90;;;;;;;;;;4936552;29;20447;-72
2022/08/18 16:05:23;;;;;;;2.05;0.80;;;;;;;;;;4935444;29;20420;-73
2022/08/18 16:07:51;;;;;;;1.10;0.60;;;;;;;;;;4936620;29;20050;-72
2022/08/18 16:10:18;;;;;;;1.70;0.63;;;;;;;;;;4936457;29;20497;-72
2022/08/18 16:12:45;;;;;;;1.80;0.80;;;;;;;;;;4936394;29;20031;-72
2022/08/18 16:15:12;;;;;;;2.33;0.80;;;;;;;;;;4935807;29;20028;-72
2022/08/18 16:17:38;;;;;;;3.22;0.90;;;;;;;;;;4935887;29;20506;-72
2022/08/18 16:20:06;;;;;;;1.08;0.70;;;;;;;;;;4936465;29;20030;-68
